sensor_id;sensor_type;location;lat;lon;timestamp;P1;durP1;ratioP1;P2;durP2;ratioP2
3841;SDS011;1936;47.074;15.336;2023-02-03T00:01:44;11.90;;;8.32;;
3841;SDS011;1936;47.074;15.336;2023-02-03T00:03:47;11.82;;;8.48;;
3841;SDS011;1936;47.074;15.336;2023-02-03T00:05:50;13.80;;;9.60;;
3841;SDS011;1936;47.074;15.336;2023-02-03T00:07:54;11.57;;;8.20;;
3841;SDS011;1936;47.074;15.336;2023-02-03T00:09:58;14.77;;;9.18;;
3841;SDS011;1936;47.074;15.336;2023-02-03T00:12:03;11.75;;;8.45;;
3841;SDS011;1936;47.074;15.336;2023-02-03T00:14:07;12.77;;;9.57;;
3841;SDS011;1936;47.074;15.336;2023-02-03T00:16:10;11.15;;;9.60;;
3841;SDS011;1936;47.074;15.336;2023-02-03T00:18:13;19.88;;;9.20;;
3841;SDS011;1936;47.074;15.336;2023-02-03T00:20:17;13.45;;;9.50;;
3841;SDS011;1936;47.074;15.336;2023-02-03T00:22:20;15.35;;;10.80;;
3841;SDS011;1936;47.074;15.336;2023-02-03T00:24:24;17.95;;;12.05;;
3841;SDS011;1936;47.074;15.336;2023-02-03T00:26:27;16.75;;;9.93;;
3841;SDS011;1936;47.074;15.336;2023-02-03T00:28:32;18.58;;;12.50;;
3841;SDS011;1936;47.074;15.336;2023-02-03T00:30:35;26.70;;;14.48;;
3841;SDS011;1936;47.074;15.336;2023-02-03T00:32:39;23.63;;;13.95;;
3841;SDS011;1936;47.074;15.336;2023-02-03T00:34:42;24.05;;;15.07;;
3841;SDS011;1936;47.074;15.336;2023-02-03T00:36:46;27.33;;;14.80;;
3841;SDS011;1936;47.074;15.336;2023-02-03T00:38:50;22.92;;;14.00;;
3841;SDS011;1936;47.074;15.336;2023-02-03T00:40:53;21.00;;;12.02;;
3841;SDS011;1936;47.074;15.336;2023-02-03T00:43:00;18.23;;;10.82;;
3841;SDS011;1936;47.074;15.336;2023-02-03T00:45:05;15.77;;;10.45;;
3841;SDS011;1936;47.074;15.336;2023-02-03T00:47:09;12.18;;;7.13;;
3841;SDS011;1936;47.074;15.336;2023-02-03T00:49:13;11.52;;;7.00;;
3841;SDS011;1936;47.074;15.336;2023-02-03T00:51:16;13.38;;;6.85;;
3841;SDS011;1936;47.074;15.336;2023-02-03T00:53:19;11.23;;;6.22;;
3841;SDS011;1936;47.074;15.336;2023-02-03T00:55:23;11.32;;;6.03;;
3841;SDS011;1936;47.074;15.336;2023-02-03T00:57:26;7.40;;;5.82;;
3841;SDS011;1936;47.074;15.336;2023-02-03T00:59:30;8.90;;;6.82;;
3841;SDS011;1936;47.074;15.336;2023-02-03T01:01:35;8.13;;;5.75;;
3841;SDS011;1936;47.074;15.336;2023-02-03T01:03:38;6.57;;;4.47;;
3841;SDS011;1936;47.074;15.336;2023-02-03T01:05:41;6.22;;;4.32;;
3841;SDS011;1936;47.074;15.336;2023-02-03T01:07:45;7.72;;;5.07;;
3841;SDS011;1936;47.074;15.336;2023-02-03T01:09:48;7.65;;;5.10;;
3841;SDS011;1936;47.074;15.336;2023-02-03T01:11:51;9.65;;;6.60;;
3841;SDS011;1936;47.074;15.336;2023-02-03T01:13:55;12.55;;;7.93;;
3841;SDS011;1936;47.074;15.336;2023-02-03T01:16:02;11.98;;;8.00;;
3841;SDS011;1936;47.074;15.336;2023-02-03T01:18:10;10.95;;;7.55;;
3841;SDS011;1936;47.074;15.336;2023-02-03T01:20:13;13.00;;;8.50;;
3841;SDS011;1936;47.074;15.336;2023-02-03T01:22:17;10.43;;;8.77;;
3841;SDS011;1936;47.074;15.336;2023-02-03T01:24:21;10.05;;;7.72;;
3841;SDS011;1936;47.074;15.336;2023-02-03T01:26:24;10.38;;;7.82;;
3841;SDS011;1936;47.074;15.336;2023-02-03T01:28:27;10.70;;;7.40;;
3841;SDS011;1936;47.074;15.336;2023-02-03T01:30:31;13.48;;;9.48;;
3841;SDS011;1936;47.074;15.336;2023-02-03T01:32:34;11.75;;;8.45;;
3841;SDS011;1936;47.074;15.336;2023-02-03T01:34:39;11.15;;;8.63;;
3841;SDS011;1936;47.074;15.336;2023-02-03T01:36:42;11.40;;;8.90;;
3841;SDS011;1936;47.074;15.336;2023-02-03T01:38:47;19.60;;;11.85;;
3841;SDS011;1936;47.074;15.336;2023-02-03T01:40:52;14.30;;;9.43;;
3841;SDS011;1936;47.074;15.336;2023-02-03T01:42:55;13.18;;;9.07;;
3841;SDS011;1936;47.074;15.336;2023-02-03T01:44:59;14.38;;;8.90;;
3841;SDS011;1936;47.074;15.336;2023-02-03T01:47:02;16.90;;;10.68;;
3841;SDS011;1936;47.074;15.336;2023-02-03T01:49:11;12.00;;;8.30;;
3841;SDS011;1936;47.074;15.336;2023-02-03T01:51:18;19.50;;;11.68;;
3841;SDS011;1936;47.074;15.336;2023-02-03T01:53:22;15.82;;;10.10;;
3841;SDS011;1936;47.074;15.336;2023-02-03T01:55:27;16.02;;;9.10;;
3841;SDS011;1936;47.074;15.336;2023-02-03T01:57:37;12.52;;;7.82;;
3841;SDS011;1936;47.074;15.336;2023-02-03T01:59:44;14.02;;;8.45;;
3841;SDS011;1936;47.074;15.336;2023-02-03T02:01:48;11.18;;;6.30;;
3841;SDS011;1936;47.074;15.336;2023-02-03T02:03:54;8.10;;;6.40;;
3841;SDS011;1936;47.074;15.336;2023-02-03T02:06:00;11.65;;;6.28;;
3841;SDS011;1936;47.074;15.336;2023-02-03T02:08:07;9.82;;;6.53;;
3841;SDS011;1936;47.074;15.336;2023-02-03T02:10:12;9.32;;;7.00;;
3841;SDS011;1936;47.074;15.336;2023-02-03T02:12:15;12.48;;;6.97;;
3841;SDS011;1936;47.074;15.336;2023-02-03T02:14:18;10.80;;;7.18;;
3841;SDS011;1936;47.074;15.336;2023-02-03T02:16:24;11.35;;;6.72;;
3841;SDS011;1936;47.074;15.336;2023-02-03T02:18:39;11.18;;;6.28;;
3841;SDS011;1936;47.074;15.336;2023-02-03T02:21:00;9.40;;;6.10;;
3841;SDS011;1936;47.074;15.336;2023-02-03T02:23:35;8.45;;;6.68;;
3841;SDS011;1936;47.074;15.336;2023-02-03T02:26:12;8.50;;;6.57;;
3841;SDS011;1936;47.074;15.336;2023-02-03T02:28:48;12.90;;;7.75;;
3841;SDS011;1936;47.074;15.336;2023-02-03T02:31:12;11.05;;;5.38;;
3841;SDS011;1936;47.074;15.336;2023-02-03T02:33:39;17.25;;;10.02;;
3841;SDS011;1936;47.074;15.336;2023-02-03T02:35:46;23.20;;;10.77;;
3841;SDS011;1936;47.074;15.336;2023-02-03T02:37:58;24.33;;;10.88;;
3841;SDS011;1936;47.074;15.336;2023-02-03T02:40:08;15.43;;;7.85;;
3841;SDS011;1936;47.074;15.336;2023-02-03T02:42:21;15.30;;;6.97;;
3841;SDS011;1936;47.074;15.336;2023-02-03T02:44:32;11.77;;;5.40;;
3841;SDS011;1936;47.074;15.336;2023-02-03T02:46:42;10.18;;;6.70;;
3841;SDS011;1936;47.074;15.336;2023-02-03T02:48:51;8.60;;;6.15;;
3841;SDS011;1936;47.074;15.336;2023-02-03T02:50:58;10.70;;;6.95;;
3841;SDS011;1936;47.074;15.336;2023-02-03T02:53:04;7.43;;;4.05;;
3841;SDS011;1936;47.074;15.336;2023-02-03T02:55:11;8.93;;;4.95;;
3841;SDS011;1936;47.074;15.336;2023-02-03T02:57:19;7.88;;;5.20;;
3841;SDS011;1936;47.074;15.336;2023-02-03T02:59:25;13.68;;;4.43;;
3841;SDS011;1936;47.074;15.336;2023-02-03T03:01:29;3.88;;;3.13;;
3841;SDS011;1936;47.074;15.336;2023-02-03T03:03:32;7.82;;;5.60;;
3841;SDS011;1936;47.074;15.336;2023-02-03T03:05:37;9.25;;;5.20;;
3841;SDS011;1936;47.074;15.336;2023-02-03T03:07:42;5.80;;;4.93;;
3841;SDS011;1936;47.074;15.336;2023-02-03T03:09:49;7.05;;;5.10;;
3841;SDS011;1936;47.074;15.336;2023-02-03T03:11:57;7.20;;;4.70;;
3841;SDS011;1936;47.074;15.336;2023-02-03T03:14:04;7.10;;;5.05;;
3841;SDS011;1936;47.074;15.336;2023-02-03T03:16:09;9.18;;;5.32;;
3841;SDS011;1936;47.074;15.336;2023-02-03T03:18:16;7.85;;;5.40;;
3841;SDS011;1936;47.074;15.336;2023-02-03T03:20:23;7.50;;;5.32;;
3841;SDS011;1936;47.074;15.336;2023-02-03T03:22:32;5.38;;;4.78;;
3841;SDS011;1936;47.074;15.336;2023-02-03T03:24:41;7.20;;;5.03;;
3841;SDS011;1936;47.074;15.336;2023-02-03T03:26:49;6.43;;;4.88;;
3841;SDS011;1936;47.074;15.336;2023-02-03T03:28:59;6.95;;;5.15;;
3841;SDS011;1936;47.074;15.336;2023-02-03T03:31:08;7.07;;;5.18;;
3841;SDS011;1936;47.074;15.336;2023-02-03T03:33:12;8.82;;;5.85;;
3841;SDS011;1936;47.074;15.336;2023-02-03T03:35:15;9.60;;;5.82;;
3841;SDS011;1936;47.074;15.336;2023-02-03T03:37:21;8.45;;;6.03;;
3841;SDS011;1936;47.074;15.336;2023-02-03T03:39:33;11.15;;;6.13;;
3841;SDS011;1936;47.074;15.336;2023-02-03T03:41:47;8.68;;;5.50;;
3841;SDS011;1936;47.074;15.336;2023-02-03T03:43:58;7.70;;;4.75;;
3841;SDS011;1936;47.074;15.336;2023-02-03T03:46:07;7.40;;;4.07;;
3841;SDS011;1936;47.074;15.336;2023-02-03T03:48:15;6.05;;;3.78;;
3841;SDS011;1936;47.074;15.336;2023-02-03T03:50:24;8.95;;;5.22;;
3841;SDS011;1936;47.074;15.336;2023-02-03T03:52:31;7.82;;;5.10;;
3841;SDS011;1936;47.074;15.336;2023-02-03T03:54:38;5.30;;;3.65;;
3841;SDS011;1936;47.074;15.336;2023-02-03T03:56:45;6.13;;;4.95;;
3841;SDS011;1936;47.074;15.336;2023-02-03T03:58:53;7.30;;;5.38;;
3841;SDS011;1936;47.074;15.336;2023-02-03T04:00:56;9.13;;;5.25;;
3841;SDS011;1936;47.074;15.336;2023-02-03T04:03:10;5.22;;;4.10;;
3841;SDS011;1936;47.074;15.336;2023-02-03T04:05:17;10.40;;;6.88;;
3841;SDS011;1936;47.074;15.336;2023-02-03T04:07:21;11.85;;;5.63;;
3841;SDS011;1936;47.074;15.336;2023-02-03T04:09:24;8.98;;;5.97;;
3841;SDS011;1936;47.074;15.336;2023-02-03T04:11:29;7.15;;;4.85;;
3841;SDS011;1936;47.074;15.336;2023-02-03T04:13:52;10.57;;;6.05;;
3841;SDS011;1936;47.074;15.336;2023-02-03T04:15:55;10.98;;;5.72;;
3841;SDS011;1936;47.074;15.336;2023-02-03T04:17:59;7.15;;;5.15;;
3841;SDS011;1936;47.074;15.336;2023-02-03T04:20:02;9.93;;;5.78;;
3841;SDS011;1936;47.074;15.336;2023-02-03T04:22:06;9.30;;;5.47;;
3841;SDS011;1936;47.074;15.336;2023-02-03T04:24:10;7.65;;;5.25;;
3841;SDS011;1936;47.074;15.336;2023-02-03T04:26:13;7.22;;;4.32;;
3841;SDS011;1936;47.074;15.336;2023-02-03T04:28:18;7.28;;;5.20;;
3841;SDS011;1936;47.074;15.336;2023-02-03T04:30:21;12.50;;;6.40;;
3841;SDS011;1936;47.074;15.336;2023-02-03T04:32:25;8.15;;;3.95;;
3841;SDS011;1936;47.074;15.336;2023-02-03T04:34:29;6.78;;;5.72;;
3841;SDS011;1936;47.074;15.336;2023-02-03T04:36:32;8.23;;;4.57;;
3841;SDS011;1936;47.074;15.336;2023-02-03T04:38:36;6.63;;;5.00;;
3841;SDS011;1936;47.074;15.336;2023-02-03T04:40:39;6.80;;;5.65;;
3841;SDS011;1936;47.074;15.336;2023-02-03T04:42:42;9.35;;;5.20;;
3841;SDS011;1936;47.074;15.336;2023-02-03T04:44:47;7.55;;;5.22;;
3841;SDS011;1936;47.074;15.336;2023-02-03T04:46:51;6.28;;;3.88;;
3841;SDS011;1936;47.074;15.336;2023-02-03T04:48:54;5.68;;;4.40;;
3841;SDS011;1936;47.074;15.336;2023-02-03T04:50:59;9.90;;;5.70;;
3841;SDS011;1936;47.074;15.336;2023-02-03T04:53:04;5.65;;;4.20;;
3841;SDS011;1936;47.074;15.336;2023-02-03T04:55:07;5.80;;;3.53;;
3841;SDS011;1936;47.074;15.336;2023-02-03T04:57:11;3.88;;;3.10;;
3841;SDS011;1936;47.074;15.336;2023-02-03T04:59:14;6.78;;;4.10;;
3841;SDS011;1936;47.074;15.336;2023-02-03T05:01:19;6.10;;;3.67;;
3841;SDS011;1936;47.074;15.336;2023-02-03T05:03:22;5.35;;;3.10;;
3841;SDS011;1936;47.074;15.336;2023-02-03T05:05:26;5.75;;;3.28;;
3841;SDS011;1936;47.074;15.336;2023-02-03T05:07:30;4.65;;;3.53;;
3841;SDS011;1936;47.074;15.336;2023-02-03T05:09:33;3.47;;;2.67;;
3841;SDS011;1936;47.074;15.336;2023-02-03T05:11:37;6.22;;;2.95;;
3841;SDS011;1936;47.074;15.336;2023-02-03T05:13:40;4.55;;;2.75;;
3841;SDS011;1936;47.074;15.336;2023-02-03T05:15:43;3.03;;;2.60;;
3841;SDS011;1936;47.074;15.336;2023-02-03T05:17:49;4.25;;;2.70;;
3841;SDS011;1936;47.074;15.336;2023-02-03T05:19:53;3.55;;;2.60;;
3841;SDS011;1936;47.074;15.336;2023-02-03T05:21:57;6.40;;;3.53;;
3841;SDS011;1936;47.074;15.336;2023-02-03T05:24:00;4.63;;;2.28;;
3841;SDS011;1936;47.074;15.336;2023-02-03T05:26:07;2.72;;;2.53;;
3841;SDS011;1936;47.074;15.336;2023-02-03T05:28:11;6.15;;;3.13;;
3841;SDS011;1936;47.074;15.336;2023-02-03T05:30:14;4.25;;;2.53;;
3841;SDS011;1936;47.074;15.336;2023-02-03T05:32:18;8.27;;;4.22;;
3841;SDS011;1936;47.074;15.336;2023-02-03T05:34:23;11.27;;;4.20;;
3841;SDS011;1936;47.074;15.336;2023-02-03T05:36:26;5.68;;;3.25;;
3841;SDS011;1936;47.074;15.336;2023-02-03T05:38:29;6.85;;;3.50;;
3841;SDS011;1936;47.074;15.336;2023-02-03T05:40:33;11.05;;;4.72;;
3841;SDS011;1936;47.074;15.336;2023-02-03T05:42:53;9.60;;;4.05;;
3841;SDS011;1936;47.074;15.336;2023-02-03T05:44:56;9.90;;;4.93;;
3841;SDS011;1936;47.074;15.336;2023-02-03T05:47:00;6.13;;;3.35;;
3841;SDS011;1936;47.074;15.336;2023-02-03T05:49:03;15.38;;;6.85;;
3841;SDS011;1936;47.074;15.336;2023-02-03T05:51:08;16.63;;;7.45;;
3841;SDS011;1936;47.074;15.336;2023-02-03T05:53:11;41.75;;;16.05;;
3841;SDS011;1936;47.074;15.336;2023-02-03T05:55:15;41.50;;;17.20;;
3841;SDS011;1936;47.074;15.336;2023-02-03T05:57:18;28.25;;;14.18;;
3841;SDS011;1936;47.074;15.336;2023-02-03T05:59:22;16.00;;;8.25;;
3841;SDS011;1936;47.074;15.336;2023-02-03T06:01:25;11.93;;;7.65;;
3841;SDS011;1936;47.074;15.336;2023-02-03T06:03:28;5.20;;;3.40;;
3841;SDS011;1936;47.074;15.336;2023-02-03T06:05:32;4.22;;;3.60;;
3841;SDS011;1936;47.074;15.336;2023-02-03T06:07:40;6.53;;;4.78;;
3841;SDS011;1936;47.074;15.336;2023-02-03T06:09:44;3.83;;;2.35;;
3841;SDS011;1936;47.074;15.336;2023-02-03T06:11:47;5.32;;;4.07;;
3841;SDS011;1936;47.074;15.336;2023-02-03T06:13:51;1.95;;;1.70;;
3841;SDS011;1936;47.074;15.336;2023-02-03T06:15:55;3.50;;;2.90;;
3841;SDS011;1936;47.074;15.336;2023-02-03T06:17:59;2.00;;;1.80;;
3841;SDS011;1936;47.074;15.336;2023-02-03T06:20:02;3.08;;;2.17;;
3841;SDS011;1936;47.074;15.336;2023-02-03T06:22:06;2.10;;;1.90;;
3841;SDS011;1936;47.074;15.336;2023-02-03T06:24:11;2.60;;;2.28;;
3841;SDS011;1936;47.074;15.336;2023-02-03T06:26:14;2.95;;;1.67;;
3841;SDS011;1936;47.074;15.336;2023-02-03T06:28:17;2.25;;;1.30;;
3841;SDS011;1936;47.074;15.336;2023-02-03T06:30:21;1.45;;;1.27;;
3841;SDS011;1936;47.074;15.336;2023-02-03T06:32:26;1.33;;;1.10;;
3841;SDS011;1936;47.074;15.336;2023-02-03T06:34:29;1.70;;;1.60;;
3841;SDS011;1936;47.074;15.336;2023-02-03T06:36:33;1.70;;;1.60;;
3841;SDS011;1936;47.074;15.336;2023-02-03T06:38:36;3.83;;;2.50;;
3841;SDS011;1936;47.074;15.336;2023-02-03T06:40:41;3.30;;;2.17;;
3841;SDS011;1936;47.074;15.336;2023-02-03T06:42:47;3.60;;;1.58;;
3841;SDS011;1936;47.074;15.336;2023-02-03T06:44:51;5.50;;;2.10;;
3841;SDS011;1936;47.074;15.336;2023-02-03T06:46:55;1.90;;;1.70;;
3841;SDS011;1936;47.074;15.336;2023-02-03T06:48:59;2.83;;;2.53;;
3841;SDS011;1936;47.074;15.336;2023-02-03T06:51:02;5.97;;;4.57;;
3841;SDS011;1936;47.074;15.336;2023-02-03T06:53:06;5.28;;;4.60;;
3841;SDS011;1936;47.074;15.336;2023-02-03T06:55:10;6.43;;;5.18;;
3841;SDS011;1936;47.074;15.336;2023-02-03T06:57:15;7.07;;;5.45;;
3841;SDS011;1936;47.074;15.336;2023-02-03T06:59:18;5.15;;;4.40;;
3841;SDS011;1936;47.074;15.336;2023-02-03T07:01:21;3.88;;;3.47;;
3841;SDS011;1936;47.074;15.336;2023-02-03T07:03:26;4.00;;;3.05;;
3841;SDS011;1936;47.074;15.336;2023-02-03T07:05:29;10.27;;;3.35;;
3841;SDS011;1936;47.074;15.336;2023-02-03T07:07:33;4.28;;;3.30;;
3841;SDS011;1936;47.074;15.336;2023-02-03T07:09:36;4.10;;;3.30;;
3841;SDS011;1936;47.074;15.336;2023-02-03T07:11:39;4.38;;;3.45;;
3841;SDS011;1936;47.074;15.336;2023-02-03T07:13:44;2.65;;;2.33;;
3841;SDS011;1936;47.074;15.336;2023-02-03T07:15:47;4.13;;;3.05;;
3841;SDS011;1936;47.074;15.336;2023-02-03T07:17:51;3.13;;;2.83;;
3841;SDS011;1936;47.074;15.336;2023-02-03T07:19:56;3.50;;;3.10;;
3841;SDS011;1936;47.074;15.336;2023-02-03T07:22:00;3.95;;;2.60;;
3841;SDS011;1936;47.074;15.336;2023-02-03T07:24:03;3.42;;;3.13;;
3841;SDS011;1936;47.074;15.336;2023-02-03T07:26:07;3.83;;;3.20;;
3841;SDS011;1936;47.074;15.336;2023-02-03T07:28:11;9.07;;;6.70;;
3841;SDS011;1936;47.074;15.336;2023-02-03T07:30:16;5.65;;;4.70;;
3841;SDS011;1936;47.074;15.336;2023-02-03T07:32:20;4.95;;;3.53;;
3841;SDS011;1936;47.074;15.336;2023-02-03T07:34:24;5.00;;;3.67;;
3841;SDS011;1936;47.074;15.336;2023-02-03T07:36:27;4.05;;;3.45;;
3841;SDS011;1936;47.074;15.336;2023-02-03T07:38:30;4.05;;;3.00;;
3841;SDS011;1936;47.074;15.336;2023-02-03T07:40:34;4.28;;;3.35;;
3841;SDS011;1936;47.074;15.336;2023-02-03T07:42:37;3.28;;;2.30;;
3841;SDS011;1936;47.074;15.336;2023-02-03T07:44:43;2.85;;;2.15;;
3841;SDS011;1936;47.074;15.336;2023-02-03T07:46:51;2.25;;;1.95;;
3841;SDS011;1936;47.074;15.336;2023-02-03T07:48:55;3.05;;;2.03;;
3841;SDS011;1936;47.074;15.336;2023-02-03T07:50:58;2.50;;;1.60;;
3841;SDS011;1936;47.074;15.336;2023-02-03T07:53:01;2.67;;;2.05;;
3841;SDS011;1936;47.074;15.336;2023-02-03T07:55:05;7.15;;;2.22;;
3841;SDS011;1936;47.074;15.336;2023-02-03T07:57:09;2.40;;;2.20;;
3841;SDS011;1936;47.074;15.336;2023-02-03T07:59:13;2.20;;;2.00;;
3841;SDS011;1936;47.074;15.336;2023-02-03T08:01:16;2.72;;;2.20;;
3841;SDS011;1936;47.074;15.336;2023-02-03T08:03:21;2.60;;;2.10;;
3841;SDS011;1936;47.074;15.336;2023-02-03T08:05:24;2.50;;;2.30;;
3841;SDS011;1936;47.074;15.336;2023-02-03T08:07:28;2.17;;;1.98;;
3841;SDS011;1936;47.074;15.336;2023-02-03T08:09:31;2.72;;;2.53;;
3841;SDS011;1936;47.074;15.336;2023-02-03T08:11:34;2.05;;;1.85;;
3841;SDS011;1936;47.074;15.336;2023-02-03T08:13:38;3.30;;;2.20;;
3841;SDS011;1936;47.074;15.336;2023-02-03T08:15:41;2.25;;;1.90;;
3841;SDS011;1936;47.074;15.336;2023-02-03T08:17:45;2.47;;;1.98;;
3841;SDS011;1936;47.074;15.336;2023-02-03T08:19:53;3.55;;;2.15;;
3841;SDS011;1936;47.074;15.336;2023-02-03T08:21:56;2.58;;;2.20;;
3841;SDS011;1936;47.074;15.336;2023-02-03T08:24:00;1.60;;;1.50;;
3841;SDS011;1936;47.074;15.336;2023-02-03T08:26:04;1.90;;;1.70;;
3841;SDS011;1936;47.074;15.336;2023-02-03T08:28:08;2.30;;;2.10;;
3841;SDS011;1936;47.074;15.336;2023-02-03T08:30:12;2.47;;;1.52;;
3841;SDS011;1936;47.074;15.336;2023-02-03T08:32:17;1.88;;;1.55;;
3841;SDS011;1936;47.074;15.336;2023-02-03T08:34:22;2.33;;;1.70;;
3841;SDS011;1936;47.074;15.336;2023-02-03T08:36:27;5.47;;;1.70;;
3841;SDS011;1936;47.074;15.336;2023-02-03T08:38:31;1.90;;;1.80;;
3841;SDS011;1936;47.074;15.336;2023-02-03T08:40:35;4.38;;;2.00;;
3841;SDS011;1936;47.074;15.336;2023-02-03T08:42:38;2.65;;;2.42;;
3841;SDS011;1936;47.074;15.336;2023-02-03T08:44:41;3.70;;;2.88;;
3841;SDS011;1936;47.074;15.336;2023-02-03T08:46:47;5.10;;;2.45;;
3841;SDS011;1936;47.074;15.336;2023-02-03T08:48:52;3.75;;;3.15;;
3841;SDS011;1936;47.074;15.336;2023-02-03T08:50:56;2.50;;;2.15;;
3841;SDS011;1936;47.074;15.336;2023-02-03T08:53:01;2.53;;;2.10;;
3841;SDS011;1936;47.074;15.336;2023-02-03T08:55:05;1.53;;;1.43;;
3841;SDS011;1936;47.074;15.336;2023-02-03T08:57:09;2.07;;;1.87;;
3841;SDS011;1936;47.074;15.336;2023-02-03T08:59:12;2.30;;;2.10;;
3841;SDS011;1936;47.074;15.336;2023-02-03T09:01:16;2.50;;;2.30;;
3841;SDS011;1936;47.074;15.336;2023-02-03T09:03:19;2.37;;;1.60;;
3841;SDS011;1936;47.074;15.336;2023-02-03T09:05:24;2.17;;;1.47;;
3841;SDS011;1936;47.074;15.336;2023-02-03T09:07:27;2.10;;;1.90;;
3841;SDS011;1936;47.074;15.336;2023-02-03T09:09:32;1.87;;;1.50;;
3841;SDS011;1936;47.074;15.336;2023-02-03T09:11:36;2.23;;;1.93;;
3841;SDS011;1936;47.074;15.336;2023-02-03T09:13:39;2.37;;;2.17;;
3841;SDS011;1936;47.074;15.336;2023-02-03T09:15:46;2.33;;;1.73;;
3841;SDS011;1936;47.074;15.336;2023-02-03T09:17:49;2.83;;;2.53;;
3841;SDS011;1936;47.074;15.336;2023-02-03T09:19:54;4.33;;;2.20;;
3841;SDS011;1936;47.074;15.336;2023-02-03T09:21:57;4.20;;;2.63;;
3841;SDS011;1936;47.074;15.336;2023-02-03T09:24:01;2.50;;;2.10;;
3841;SDS011;1936;47.074;15.336;2023-02-03T09:26:08;2.90;;;2.67;;
3841;SDS011;1936;47.074;15.336;2023-02-03T09:28:13;3.27;;;2.13;;
3841;SDS011;1936;47.074;15.336;2023-02-03T09:30:17;2.50;;;1.60;;
3841;SDS011;1936;47.074;15.336;2023-02-03T09:32:20;2.30;;;2.00;;
3841;SDS011;1936;47.074;15.336;2023-02-03T09:34:24;1.97;;;1.80;;
3841;SDS011;1936;47.074;15.336;2023-02-03T09:36:27;1.93;;;1.73;;
3841;SDS011;1936;47.074;15.336;2023-02-03T09:38:31;1.93;;;1.70;;
3841;SDS011;1936;47.074;15.336;2023-02-03T09:40:35;3.07;;;1.80;;
3841;SDS011;1936;47.074;15.336;2023-02-03T10:16:37;1.73;;;1.60;;
3841;SDS011;1936;47.074;15.336;2023-02-03T10:33:59;2.10;;;1.90;;
3841;SDS011;1936;47.074;15.336;2023-02-03T10:36:14;1.90;;;1.73;;
3841;SDS011;1936;47.074;15.336;2023-02-03T10:38:24;2.43;;;2.23;;
3841;SDS011;1936;47.074;15.336;2023-02-03T10:40:37;1.70;;;1.60;;
3841;SDS011;1936;47.074;15.336;2023-02-03T10:42:41;1.87;;;1.70;;
3841;SDS011;1936;47.074;15.336;2023-02-03T10:45:03;2.00;;;1.80;;
3841;SDS011;1936;47.074;15.336;2023-02-03T10:49:36;1.50;;;1.40;;
3841;SDS011;1936;47.074;15.336;2023-02-03T10:51:42;1.60;;;1.43;;
3841;SDS011;1936;47.074;15.336;2023-02-03T10:53:50;1.90;;;1.80;;
3841;SDS011;1936;47.074;15.336;2023-02-03T10:55:59;2.40;;;2.20;;
3841;SDS011;1936;47.074;15.336;2023-02-03T10:58:06;2.60;;;1.80;;
3841;SDS011;1936;47.074;15.336;2023-02-03T11:00:19;1.77;;;1.67;;
3841;SDS011;1936;47.074;15.336;2023-02-03T11:02:26;2.33;;;2.13;;
3841;SDS011;1936;47.074;15.336;2023-02-03T11:04:32;3.93;;;2.37;;
3841;SDS011;1936;47.074;15.336;2023-02-03T11:06:37;3.47;;;1.90;;
3841;SDS011;1936;47.074;15.336;2023-02-03T11:08:56;2.47;;;2.20;;
3841;SDS011;1936;47.074;15.336;2023-02-03T11:11:00;1.70;;;1.60;;
3841;SDS011;1936;47.074;15.336;2023-02-03T11:13:14;2.30;;;2.10;;
3841;SDS011;1936;47.074;15.336;2023-02-03T11:15:20;2.00;;;1.80;;
3841;SDS011;1936;47.074;15.336;2023-02-03T11:17:25;2.43;;;1.77;;
3841;SDS011;1936;47.074;15.336;2023-02-03T11:19:31;2.30;;;1.53;;
3841;SDS011;1936;47.074;15.336;2023-02-03T11:21:40;2.03;;;1.83;;
3841;SDS011;1936;47.074;15.336;2023-02-03T11:23:48;2.07;;;1.80;;
3841;SDS011;1936;47.074;15.336;2023-02-03T11:25:54;1.87;;;1.77;;
3841;SDS011;1936;47.074;15.336;2023-02-03T11:28:02;2.03;;;1.73;;
3841;SDS011;1936;47.074;15.336;2023-02-03T11:30:13;3.33;;;2.00;;
3841;SDS011;1936;47.074;15.336;2023-02-03T11:32:19;3.10;;;2.07;;
3841;SDS011;1936;47.074;15.336;2023-02-03T11:34:29;1.93;;;1.50;;
3841;SDS011;1936;47.074;15.336;2023-02-03T11:36:35;2.07;;;1.87;;
3841;SDS011;1936;47.074;15.336;2023-02-03T11:38:41;2.67;;;1.30;;
3841;SDS011;1936;47.074;15.336;2023-02-03T11:40:45;2.30;;;1.67;;
3841;SDS011;1936;47.074;15.336;2023-02-03T11:43:01;2.20;;;2.00;;
3841;SDS011;1936;47.074;15.336;2023-02-03T11:45:23;2.03;;;1.83;;
3841;SDS011;1936;47.074;15.336;2023-02-03T11:47:28;1.93;;;1.77;;
3841;SDS011;1936;47.074;15.336;2023-02-03T11:52:17;2.33;;;1.80;;
3841;SDS011;1936;47.074;15.336;2023-02-03T11:54:39;3.10;;;1.80;;
3841;SDS011;1936;47.074;15.336;2023-02-03T11:56:59;1.90;;;1.70;;
3841;SDS011;1936;47.074;15.336;2023-02-03T11:59:27;2.10;;;1.80;;
3841;SDS011;1936;47.074;15.336;2023-02-03T12:02:01;2.00;;;1.77;;
3841;SDS011;1936;47.074;15.336;2023-02-03T12:04:28;1.50;;;1.40;;
3841;SDS011;1936;47.074;15.336;2023-02-03T12:07:03;1.67;;;1.50;;
3841;SDS011;1936;47.074;15.336;2023-02-03T12:09:27;2.47;;;1.60;;
3841;SDS011;1936;47.074;15.336;2023-02-03T12:11:48;2.10;;;1.60;;
3841;SDS011;1936;47.074;15.336;2023-02-03T12:14:16;1.83;;;1.63;;
3841;SDS011;1936;47.074;15.336;2023-02-03T12:16:49;2.00;;;1.70;;
3841;SDS011;1936;47.074;15.336;2023-02-03T12:19:10;1.77;;;1.57;;
3841;SDS011;1936;47.074;15.336;2023-02-03T12:21:26;5.03;;;1.60;;
3841;SDS011;1936;47.074;15.336;2023-02-03T12:23:40;2.50;;;2.10;;
3841;SDS011;1936;47.074;15.336;2023-02-03T12:25:53;1.67;;;1.57;;
3841;SDS011;1936;47.074;15.336;2023-02-03T12:28:12;1.93;;;1.73;;
3841;SDS011;1936;47.074;15.336;2023-02-03T12:30:34;2.50;;;1.70;;
3841;SDS011;1936;47.074;15.336;2023-02-03T12:32:44;4.70;;;2.07;;
3841;SDS011;1936;47.074;15.336;2023-02-03T12:34:52;2.77;;;2.20;;
3841;SDS011;1936;47.074;15.336;2023-02-03T12:37:03;2.50;;;2.17;;
3841;SDS011;1936;47.074;15.336;2023-02-03T12:39:11;4.10;;;2.30;;
3841;SDS011;1936;47.074;15.336;2023-02-03T12:41:20;2.20;;;1.87;;
3841;SDS011;1936;47.074;15.336;2023-02-03T12:43:29;4.97;;;3.73;;
3841;SDS011;1936;47.074;15.336;2023-02-03T12:45:38;2.83;;;2.23;;
3841;SDS011;1936;47.074;15.336;2023-02-03T12:47:44;2.93;;;2.27;;
3841;SDS011;1936;47.074;15.336;2023-02-03T12:49:52;3.00;;;2.63;;
3841;SDS011;1936;47.074;15.336;2023-02-03T12:52:00;4.00;;;2.20;;
3841;SDS011;1936;47.074;15.336;2023-02-03T12:54:10;2.30;;;1.83;;
3841;SDS011;1936;47.074;15.336;2023-02-03T12:56:23;2.30;;;1.67;;
3841;SDS011;1936;47.074;15.336;2023-02-03T12:58:35;2.47;;;1.70;;
3841;SDS011;1936;47.074;15.336;2023-02-03T13:00:43;2.97;;;2.20;;
3841;SDS011;1936;47.074;15.336;2023-02-03T13:02:55;1.90;;;1.70;;
3841;SDS011;1936;47.074;15.336;2023-02-03T13:05:13;1.77;;;1.67;;
3841;SDS011;1936;47.074;15.336;2023-02-03T13:07:23;2.63;;;2.43;;
3841;SDS011;1936;47.074;15.336;2023-02-03T13:09:35;4.47;;;2.80;;
3841;SDS011;1936;47.074;15.336;2023-02-03T13:11:42;3.27;;;2.10;;
3841;SDS011;1936;47.074;15.336;2023-02-03T13:13:55;2.63;;;1.93;;
3841;SDS011;1936;47.074;15.336;2023-02-03T13:16:05;3.57;;;2.20;;
3841;SDS011;1936;47.074;15.336;2023-02-03T13:18:14;2.30;;;2.10;;
3841;SDS011;1936;47.074;15.336;2023-02-03T13:20:29;4.80;;;2.27;;
3841;SDS011;1936;47.074;15.336;2023-02-03T13:22:36;1.97;;;1.83;;
3841;SDS011;1936;47.074;15.336;2023-02-03T13:24:40;1.93;;;1.53;;
3841;SDS011;1936;47.074;15.336;2023-02-03T13:26:58;2.70;;;2.30;;
3841;SDS011;1936;47.074;15.336;2023-02-03T13:29:34;3.20;;;2.40;;
3841;SDS011;1936;47.074;15.336;2023-02-03T13:31:52;4.37;;;3.03;;
3841;SDS011;1936;47.074;15.336;2023-02-03T13:34:14;3.50;;;2.73;;
3841;SDS011;1936;47.074;15.336;2023-02-03T13:39:14;2.80;;;2.57;;
3841;SDS011;1936;47.074;15.336;2023-02-03T13:41:34;3.03;;;2.70;;
3841;SDS011;1936;47.074;15.336;2023-02-03T13:43:44;1.50;;;1.40;;
3841;SDS011;1936;47.074;15.336;2023-02-03T13:45:52;6.80;;;1.97;;
3841;SDS011;1936;47.074;15.336;2023-02-03T13:47:56;2.33;;;1.73;;
3841;SDS011;1936;47.074;15.336;2023-02-03T13:50:07;2.10;;;1.73;;
3841;SDS011;1936;47.074;15.336;2023-02-03T13:52:27;2.03;;;1.83;;